createdAt,value
2018-05-14T00:00:12.368Z,86.80
2018-05-14T00:02:40.141Z,86.80
2018-05-14T00:05:07.890Z,86.80
2018-05-14T00:07:35.788Z,87.20
2018-05-14T00:10:03.632Z,87.10
2018-05-14T00:12:31.363Z,87.30
2018-05-14T00:14:59.156Z,87.50
2018-05-14T00:17:26.919Z,87.30
2018-05-14T00:19:54.658Z,87.30
2018-05-14T00:22:22.407Z,87.10
2018-05-14T00:24:50.224Z,87.00
2018-05-14T00:27:18.048Z,86.80
2018-05-14T00:29:45.742Z,87.00
2018-05-14T00:32:13.509Z,86.70
2018-05-14T00:34:41.245Z,87.60
2018-05-14T00:37:09.026Z,87.00
2018-05-14T00:39:37.729Z,87.20
2018-05-14T00:42:06.086Z,87.20
2018-05-14T00:44:33.904Z,88.10
2018-05-14T00:47:02.522Z,87.30
2018-05-14T00:49:30.550Z,87.30
2018-05-14T00:51:58.373Z,87.20
2018-05-14T00:54:26.680Z,87.00
2018-05-14T00:56:54.456Z,86.70
2018-05-14T00:59:22.276Z,87.50
2018-05-14T01:01:50.197Z,87.20
2018-05-14T01:04:18.052Z,87.10
2018-05-14T01:06:45.839Z,86.90
2018-05-14T01:09:14.410Z,87.10
2018-05-14T01:11:42.244Z,87.00
2018-05-14T01:14:10.237Z,87.00
2018-05-14T01:16:38.094Z,86.60
2018-05-14T01:19:05.868Z,86.50
2018-05-14T01:21:33.740Z,87.40
2018-05-14T01:24:01.522Z,87.60
2018-05-14T01:26:30.594Z,86.80
2018-05-14T01:28:58.933Z,86.50
2018-05-14T01:31:27.676Z,86.90
2018-05-14T01:34:02.076Z,86.70
2018-05-14T01:36:32.837Z,86.60
2018-05-14T01:39:01.469Z,87.20
2018-05-14T01:41:29.902Z,86.30
2018-05-14T01:43:58.471Z,88.00
2018-05-14T01:46:26.389Z,87.20
2018-05-14T01:48:54.263Z,87.40
2018-05-14T01:51:22.128Z,87.20
2018-05-14T01:53:49.933Z,86.90
2018-05-14T01:56:18.969Z,87.20
2018-05-14T01:58:50.109Z,86.90
2018-05-14T02:01:19.736Z,86.60
2018-05-14T02:03:48.719Z,86.50
2018-05-14T02:06:21.269Z,87.20
2018-05-14T02:08:55.575Z,87.00
2018-05-14T02:11:28.116Z,86.90
2018-05-14T02:14:00.734Z,87.20
2018-05-14T02:16:29.861Z,86.70
2018-05-14T02:18:57.684Z,86.70
2018-05-14T02:21:26.290Z,86.80
2018-05-14T02:23:54.264Z,87.00
2018-05-14T02:26:25.670Z,86.50
2018-05-14T02:28:53.904Z,86.30
2018-05-14T02:31:21.998Z,86.70
2018-05-14T02:33:51.623Z,86.60
2018-05-14T02:36:21.226Z,86.80
2018-05-14T02:38:52.329Z,86.80
2018-05-14T02:41:22.405Z,87.40
2018-05-14T02:43:50.624Z,87.20
2018-05-14T02:46:18.474Z,86.80
2018-05-14T02:48:49.498Z,87.00
2018-05-14T02:51:20.975Z,86.90
2018-05-14T02:53:53.081Z,86.90
2018-05-14T02:56:21.457Z,86.50
2018-05-14T02:58:50.424Z,86.60
2018-05-14T03:01:22.019Z,86.00
2018-05-14T03:03:53.799Z,86.70
2018-05-14T03:06:23.146Z,86.70
2018-05-14T03:08:52.109Z,86.70
2018-05-14T03:11:25.274Z,86.50
2018-05-14T03:13:54.129Z,86.40
2018-05-14T03:16:21.939Z,86.50
2018-05-14T03:18:49.743Z,86.00
2018-05-14T03:21:18.294Z,86.10
2018-05-14T03:23:50.705Z,86.20
2018-05-14T03:26:20.600Z,86.20
2018-05-14T03:28:52.400Z,86.20
2018-05-14T03:31:25.867Z,85.70
2018-05-14T03:33:58.456Z,86.30
2018-05-14T03:36:30.892Z,85.80
2018-05-14T03:38:59.744Z,85.80
2018-05-14T03:41:30.716Z,86.10
2018-05-14T03:43:59.780Z,85.80
2018-05-14T03:46:28.356Z,86.00
2018-05-14T03:48:56.108Z,86.00
2018-05-14T03:51:24.651Z,86.50
2018-05-14T03:53:52.395Z,86.50
2018-05-14T03:56:20.287Z,85.80
2018-05-14T03:58:59.776Z,86.50
2018-05-14T04:01:39.468Z,86.30
2018-05-14T04:04:19.002Z,86.30
2018-05-14T04:06:46.800Z,86.90
2018-05-14T04:09:15.324Z,86.70
2018-05-14T04:11:44.176Z,86.60
2018-05-14T04:14:12.681Z,85.90
2018-05-14T04:16:40.503Z,86.00
2018-05-14T04:19:08.976Z,86.40
2018-05-14T04:21:36.725Z,86.50
2018-05-14T04:24:04.510Z,86.80
2018-05-14T04:26:32.294Z,86.90
2018-05-14T04:29:00.791Z,86.70
2018-05-14T04:31:29.311Z,85.80
2018-05-14T04:33:57.051Z,85.70
2018-05-14T04:36:24.860Z,85.90
2018-05-14T04:38:52.572Z,84.80
2018-05-14T04:41:21.079Z,85.40
2018-05-14T04:43:48.832Z,85.40
2018-05-14T04:46:16.594Z,85.50
2018-05-14T04:48:44.361Z,85.70
2018-05-14T04:51:12.092Z,86.00
2018-05-14T04:53:40.069Z,85.50
2018-05-14T04:56:08.564Z,84.70
2018-05-14T04:58:37.065Z,84.40
2018-05-14T05:01:04.825Z,84.50
2018-05-14T05:03:32.585Z,84.00
2018-05-14T05:06:00.356Z,84.50
2018-05-14T05:08:28.254Z,85.60
2018-05-14T05:10:55.984Z,85.10
2018-05-14T05:13:23.713Z,84.10
2018-05-14T05:15:51.477Z,84.20
2018-05-14T05:18:19.218Z,84.50
2018-05-14T05:20:46.985Z,84.00
2018-05-14T05:23:14.724Z,82.70
2018-05-14T05:25:42.865Z,81.10
2018-05-14T05:28:11.362Z,81.50
2018-05-14T05:30:39.085Z,81.50
2018-05-14T05:33:06.840Z,79.20
2018-05-14T05:35:34.678Z,79.90
2018-05-14T05:38:02.447Z,78.90
2018-05-14T05:40:30.192Z,79.40
2018-05-14T05:42:57.966Z,78.80
2018-05-14T05:45:25.796Z,79.40
2018-05-14T05:47:53.500Z,79.20
2018-05-14T05:50:21.370Z,80.10
2018-05-14T05:52:49.110Z,79.60
2018-05-14T05:55:16.878Z,78.90
2018-05-14T05:57:47.147Z,77.30
2018-05-14T06:00:17.458Z,76.50
2018-05-14T06:02:45.297Z,79.10
2018-05-14T06:05:13.037Z,78.20
2018-05-14T06:07:42.023Z,75.40
2018-05-14T06:10:10.564Z,72.30
2018-05-14T06:12:38.290Z,72.30
2018-05-14T06:15:06.101Z,68.40
2018-05-14T06:17:34.084Z,67.50
2018-05-14T06:20:03.113Z,66.40
2018-05-14T06:22:31.739Z,67.90
2018-05-14T06:24:59.490Z,67.80
2018-05-14T06:27:27.224Z,64.70
2018-05-14T06:29:55.865Z,64.50
2018-05-14T06:32:23.590Z,64.40
2018-05-14T06:34:51.307Z,62.10
2018-05-14T06:37:19.075Z,60.90
2018-05-14T06:39:46.813Z,59.80
2018-05-14T06:42:14.616Z,59.10
2018-05-14T06:44:43.138Z,59.50
2018-05-14T06:47:10.889Z,59.50
2018-05-14T06:49:38.789Z,57.70
2018-05-14T06:52:06.522Z,56.70
2018-05-14T06:54:34.251Z,57.80
2018-05-14T06:57:02.115Z,58.40
2018-05-14T06:59:29.862Z,58.10
2018-05-14T07:01:57.595Z,58.20
2018-05-14T07:04:25.476Z,56.20
2018-05-14T07:06:53.331Z,55.70
2018-05-14T07:09:20.997Z,58.20
2018-05-14T07:11:48.780Z,58.10
2018-05-14T07:14:16.556Z,55.90
2018-05-14T07:16:44.337Z,55.00
2018-05-14T07:19:12.245Z,55.90
2018-05-14T07:21:39.988Z,56.60
2018-05-14T07:24:08.491Z,55.80
2018-05-14T07:26:36.270Z,55.90
2018-05-14T07:29:04.512Z,56.20
2018-05-14T07:31:33.010Z,53.00
2018-05-14T07:34:01.514Z,54.00
2018-05-14T07:36:29.279Z,53.90
2018-05-14T07:38:57.021Z,53.80
2018-05-14T07:41:25.566Z,55.80
2018-05-14T07:43:53.304Z,55.80
2018-05-14T07:46:21.035Z,54.30
2018-05-14T07:48:48.807Z,52.80
2018-05-14T07:51:16.572Z,51.10
2018-05-14T07:53:44.355Z,53.70
2018-05-14T07:56:12.085Z,52.40
2018-05-14T07:58:40.735Z,54.20
2018-05-14T08:01:08.464Z,54.20
2018-05-14T08:03:36.180Z,51.90
2018-05-14T08:06:04.095Z,53.90
2018-05-14T08:08:31.818Z,51.90
2018-05-14T08:10:59.544Z,52.80
2018-05-14T08:13:27.303Z,52.80
2018-05-14T08:15:55.946Z,56.20
2018-05-14T08:18:24.429Z,53.20
2018-05-14T08:20:52.911Z,53.50
2018-05-14T08:23:21.440Z,54.20
2018-05-14T08:25:49.177Z,54.10
2018-05-14T08:28:17.048Z,54.30
2018-05-14T08:30:44.774Z,53.00
2018-05-14T08:33:13.267Z,52.40
2018-05-14T08:35:41.808Z,52.40
2018-05-14T08:38:09.559Z,52.40
2018-05-14T08:40:37.329Z,53.00
2018-05-14T08:43:05.076Z,52.40
2018-05-14T08:45:32.870Z,53.90
2018-05-14T08:48:00.633Z,55.70
2018-05-14T08:50:28.519Z,54.30
2018-05-14T08:52:56.238Z,52.50
2018-05-14T08:55:23.974Z,52.50
2018-05-14T08:57:52.507Z,54.60
2018-05-14T09:00:20.245Z,54.50
2018-05-14T09:02:48.028Z,53.50
2018-05-14T09:05:15.754Z,55.60
2018-05-14T09:07:44.301Z,54.90
2018-05-14T09:10:12.026Z,54.90
2018-05-14T09:12:39.784Z,54.40
2018-05-14T09:15:07.525Z,53.30
2018-05-14T09:17:36.062Z,54.00
2018-05-14T09:20:03.853Z,54.00
2018-05-14T09:22:31.632Z,54.30
2018-05-14T09:25:00.142Z,53.70
2018-05-14T09:27:27.905Z,54.50
2018-05-14T09:29:55.664Z,53.10
2018-05-14T09:32:23.420Z,53.00
2018-05-14T09:34:52.076Z,53.70
2018-05-14T09:37:19.810Z,53.70
2018-05-14T09:39:47.591Z,52.20
2018-05-14T09:42:15.316Z,54.00
2018-05-14T09:44:43.076Z,52.30
2018-05-14T09:47:10.839Z,52.40
2018-05-14T09:49:38.587Z,52.30
2018-05-14T09:52:07.111Z,52.50
2018-05-14T09:54:34.893Z,52.50
2018-05-14T09:57:02.620Z,53.00
2018-05-14T09:59:30.424Z,50.80
2018-05-14T10:01:58.144Z,50.60
2018-05-14T10:04:25.861Z,50.50
2018-05-14T10:06:53.626Z,50.60
2018-05-14T10:09:21.375Z,52.70
2018-05-14T10:11:49.131Z,48.70
2018-05-14T10:14:16.882Z,48.50
2018-05-14T10:16:44.683Z,50.60
2018-05-14T10:19:12.479Z,51.60
2018-05-14T10:21:40.981Z,51.10
2018-05-14T10:24:09.238Z,51.10
2018-05-14T10:26:37.724Z,50.00
2018-05-14T10:29:06.209Z,49.00
2018-05-14T10:31:34.010Z,49.00
2018-05-14T10:34:01.747Z,49.80
2018-05-14T10:36:29.474Z,50.30
2018-05-14T10:38:57.244Z,50.20
2018-05-14T10:41:26.242Z,47.80
2018-05-14T10:43:54.010Z,48.40
2018-05-14T10:46:22.581Z,48.10
2018-05-14T10:48:50.343Z,48.00
2018-05-14T10:51:18.080Z,48.90
2018-05-14T10:53:45.946Z,48.40
2018-05-14T10:56:13.698Z,50.50
2018-05-14T10:58:41.436Z,48.00
2018-05-14T11:01:09.318Z,47.90
2018-05-14T11:03:37.054Z,48.10
2018-05-14T11:06:05.563Z,49.90
2018-05-14T11:08:33.337Z,49.90
2018-05-14T11:11:01.112Z,47.30
2018-05-14T11:13:28.863Z,47.70
2018-05-14T11:15:56.730Z,47.20
2018-05-14T11:18:24.588Z,48.70
2018-05-14T11:20:52.329Z,48.10
2018-05-14T11:23:20.828Z,46.50
2018-05-14T11:25:48.640Z,46.60
2018-05-14T11:28:16.363Z,47.80
2018-05-14T11:30:44.610Z,47.40
2018-05-14T11:33:13.104Z,45.30
2018-05-14T11:35:41.593Z,47.00
2018-05-14T11:38:09.382Z,47.00
2018-05-14T11:40:37.108Z,46.20
2018-05-14T11:43:05.618Z,46.50
2018-05-14T11:45:33.857Z,46.40
2018-05-14T11:48:02.345Z,45.60
2018-05-14T11:50:30.837Z,45.40
2018-05-14T11:52:58.589Z,45.40
2018-05-14T11:55:27.092Z,45.10
2018-05-14T11:57:54.885Z,45.00
2018-05-14T12:00:22.692Z,44.60
2018-05-14T12:02:51.192Z,43.30
2018-05-14T12:05:18.954Z,43.30
2018-05-14T12:07:47.596Z,39.10
2018-05-14T12:10:15.314Z,39.10
2018-05-14T12:12:43.053Z,40.80
2018-05-14T12:15:11.583Z,40.30
2018-05-14T12:17:39.444Z,40.50
2018-05-14T12:20:07.171Z,40.50
2018-05-14T12:22:35.659Z,41.20
2018-05-14T12:25:04.329Z,39.20
2018-05-14T12:27:32.819Z,39.00
2018-05-14T12:30:01.322Z,39.90
2018-05-14T12:32:29.099Z,39.70
2018-05-14T12:34:56.861Z,41.40
2018-05-14T12:37:24.633Z,39.40
2018-05-14T12:39:52.347Z,37.60
2018-05-14T12:42:20.976Z,37.70
2018-05-14T12:44:48.694Z,37.60
2018-05-14T12:47:17.187Z,39.10
2018-05-14T12:49:45.831Z,38.00
2018-05-14T12:52:14.340Z,37.70
2018-05-14T12:54:42.829Z,38.70
2018-05-14T12:57:11.364Z,38.70
2018-05-14T12:59:39.116Z,38.30
2018-05-14T13:02:06.897Z,37.60
2018-05-14T13:04:34.671Z,39.80
2018-05-14T13:07:02.625Z,39.00
2018-05-14T13:09:31.072Z,36.90
2018-05-14T13:11:58.820Z,37.00
2018-05-14T13:14:27.097Z,38.30
2018-05-14T13:16:54.964Z,38.20
2018-05-14T13:19:22.688Z,37.90
2018-05-14T13:21:50.474Z,37.00
2018-05-14T13:24:18.968Z,37.10
2018-05-14T13:26:46.689Z,37.00
2018-05-14T13:29:14.442Z,38.40
2018-05-14T13:31:42.311Z,36.40
2018-05-14T13:34:10.028Z,36.10
2018-05-14T13:36:37.761Z,36.10
2018-05-14T13:39:06.338Z,36.60
2018-05-14T13:41:34.068Z,36.60
2018-05-14T13:44:02.245Z,40.50
2018-05-14T13:46:29.951Z,36.60
2018-05-14T13:48:58.480Z,36.50
2018-05-14T13:51:26.241Z,36.40
2018-05-14T13:53:53.964Z,39.10
2018-05-14T13:56:22.954Z,36.30
2018-05-14T13:58:51.463Z,36.20
2018-05-14T14:01:19.184Z,36.90
2018-05-14T14:03:47.720Z,36.80
2018-05-14T14:06:15.522Z,36.70
2018-05-14T14:08:43.248Z,36.50
2018-05-14T14:11:10.972Z,35.50
2018-05-14T14:13:39.506Z,36.60
2018-05-14T14:16:07.232Z,36.70
2018-05-14T14:18:35.030Z,35.60
2018-05-14T14:21:02.760Z,35.60
2018-05-14T14:23:30.743Z,35.60
2018-05-14T14:25:59.110Z,34.10
2018-05-14T14:28:26.816Z,34.00
2018-05-14T14:30:54.714Z,36.00
2018-05-14T14:33:23.209Z,35.40
2018-05-14T14:35:50.981Z,35.40
2018-05-14T14:38:18.759Z,35.80
2018-05-14T14:40:46.541Z,35.80
2018-05-14T14:43:14.362Z,35.50
2018-05-14T14:45:42.103Z,35.60
2018-05-14T14:48:10.635Z,34.70
2018-05-14T14:50:38.405Z,34.50
2018-05-14T14:53:06.190Z,34.30
2018-05-14T14:55:33.909Z,33.70
2018-05-14T14:58:01.677Z,34.60
2018-05-14T15:00:29.514Z,33.20
2018-05-14T15:02:58.047Z,34.80
2018-05-14T15:05:25.766Z,34.80
2018-05-14T15:07:53.559Z,34.80
2018-05-14T15:10:21.303Z,33.40
2018-05-14T15:12:49.016Z,34.60
2018-05-14T15:15:16.782Z,36.00
2018-05-14T15:17:44.576Z,34.80
2018-05-14T15:20:13.105Z,34.50
2018-05-14T15:22:40.977Z,34.50
2018-05-14T15:25:08.706Z,32.40
2018-05-14T15:27:36.483Z,34.90
2018-05-14T15:30:04.309Z,33.60
2018-05-14T15:32:32.979Z,34.60
2018-05-14T15:35:01.161Z,34.60
2018-05-14T15:37:29.643Z,33.80
2018-05-14T15:39:58.140Z,32.70
2018-05-14T15:42:25.952Z,32.70
2018-05-14T15:44:53.675Z,33.40
2018-05-14T15:47:21.412Z,31.80
2018-05-14T15:49:49.996Z,31.70
2018-05-14T15:52:17.785Z,31.60
2018-05-14T15:54:45.523Z,31.70
2018-05-14T15:57:14.008Z,31.90
2018-05-14T15:59:42.535Z,34.20
2018-05-14T16:02:10.324Z,34.00
2018-05-14T16:04:38.326Z,35.60
2018-05-14T16:07:06.859Z,38.40
2018-05-14T16:09:34.624Z,38.40
2018-05-14T16:12:02.734Z,39.10
2018-05-14T16:14:31.288Z,38.70
2018-05-14T16:16:58.983Z,38.70
2018-05-14T16:19:27.537Z,39.50
2018-05-14T16:21:55.266Z,39.50
2018-05-14T16:24:23.000Z,40.00
2018-05-14T16:26:50.754Z,39.70
2018-05-14T16:29:18.484Z,40.40
2018-05-14T16:31:46.273Z,41.30
2018-05-14T16:34:14.761Z,43.00
2018-05-14T16:36:43.295Z,43.40
2018-05-14T16:39:11.101Z,43.30
2018-05-14T16:41:39.608Z,45.30
2018-05-14T16:44:07.334Z,45.30
2018-05-14T16:46:35.925Z,46.70
2018-05-14T16:49:04.433Z,47.30
2018-05-14T16:51:32.168Z,47.30
2018-05-14T16:54:01.055Z,47.50
2018-05-14T16:56:29.585Z,47.80
2018-05-14T16:58:57.342Z,47.60
2018-05-14T17:01:25.115Z,46.60
2018-05-14T17:03:52.843Z,47.50
2018-05-14T17:06:20.616Z,47.10
2018-05-14T17:08:48.338Z,47.70
2018-05-14T17:11:16.120Z,47.40
2018-05-14T17:13:45.208Z,48.20
2018-05-14T17:16:13.711Z,48.30
2018-05-14T17:18:41.541Z,48.30
2018-05-14T17:21:09.276Z,48.00
2018-05-14T17:23:37.057Z,49.00
2018-05-14T17:26:05.247Z,47.90
2018-05-14T17:28:33.743Z,49.30
2018-05-14T17:31:03.450Z,49.30
2018-05-14T17:33:32.826Z,48.40
2018-05-14T17:36:01.109Z,48.50
2018-05-14T17:38:30.733Z,48.80
2018-05-14T17:40:59.136Z,48.90
2018-05-14T17:43:27.970Z,48.90
2018-05-14T17:45:56.663Z,49.00
2018-05-14T17:48:25.193Z,49.00
2018-05-14T17:50:53.821Z,49.60
2018-05-14T17:53:21.653Z,48.90
2018-05-14T17:55:49.443Z,48.80
2018-05-14T17:58:17.219Z,48.80
2018-05-14T18:00:45.016Z,48.70
2018-05-14T18:03:12.745Z,48.80
2018-05-14T18:05:40.476Z,48.00
2018-05-14T18:08:09.129Z,48.70
2018-05-14T18:10:42.276Z,48.70
2018-05-14T18:13:10.171Z,48.70
2018-05-14T18:15:38.696Z,48.70
2018-05-14T18:18:06.447Z,48.60
2018-05-14T18:20:38.167Z,49.20
2018-05-14T18:23:06.930Z,49.60
2018-05-14T18:25:41.544Z,49.60
2018-05-14T18:28:15.479Z,49.80
2018-05-14T18:30:43.370Z,50.10
2018-05-14T18:33:11.135Z,50.60
2018-05-14T18:35:44.496Z,50.20
2018-05-14T18:38:12.230Z,50.60
2018-05-14T18:40:40.756Z,51.70
2018-05-14T18:43:09.302Z,52.10
2018-05-14T18:45:37.088Z,52.00
2018-05-14T18:48:04.977Z,52.10
2018-05-14T18:50:32.723Z,52.40
2018-05-14T18:53:01.222Z,53.10
2018-05-14T18:55:28.979Z,53.10
2018-05-14T18:57:57.475Z,53.50
2018-05-14T19:00:25.352Z,53.50
2018-05-14T19:02:53.091Z,53.40
2018-05-14T19:05:21.801Z,54.20
2018-05-14T19:07:52.220Z,54.80
2018-05-14T19:10:27.108Z,54.80
2018-05-14T19:12:56.045Z,54.80
2018-05-14T19:15:31.189Z,55.00
2018-05-14T19:18:00.398Z,54.90
2018-05-14T19:20:28.133Z,55.30
2018-05-14T19:23:01.619Z,55.10
2018-05-14T19:25:29.515Z,55.30
2018-05-14T19:28:03.217Z,55.40
2018-05-14T19:30:31.724Z,55.20
2018-05-14T19:33:00.451Z,55.40
2018-05-14T19:35:34.723Z,55.30
2018-05-14T19:38:04.459Z,55.20
2018-05-14T19:40:41.634Z,55.20
2018-05-14T19:43:10.033Z,55.30
2018-05-14T19:45:38.609Z,55.20
2018-05-14T19:48:07.261Z,55.40
2018-05-14T19:50:35.737Z,55.40
2018-05-14T19:53:03.509Z,55.40
2018-05-14T19:55:31.250Z,55.00
2018-05-14T19:57:59.839Z,55.40
2018-05-14T20:00:28.460Z,55.40
2018-05-14T20:02:57.663Z,55.30
2018-05-14T20:05:26.362Z,54.70
2018-05-14T20:07:54.166Z,54.80
2018-05-14T20:10:21.924Z,54.60
2018-05-14T20:12:50.057Z,54.50
2018-05-14T20:15:17.808Z,54.40
2018-05-14T20:17:46.956Z,54.30
2018-05-14T20:20:15.108Z,54.30
2018-05-14T20:22:42.907Z,54.70
2018-05-14T20:25:10.733Z,55.30
2018-05-14T20:27:38.561Z,55.70
2018-05-14T20:30:08.283Z,56.60
2018-05-14T20:32:37.338Z,56.40
2018-05-14T20:35:06.137Z,56.40
2018-05-14T20:37:34.337Z,56.10
2018-05-14T20:40:03.172Z,55.90
2018-05-14T20:42:31.612Z,55.90
2018-05-14T20:45:00.019Z,55.90
2018-05-14T20:47:29.023Z,55.40
2018-05-14T20:49:58.083Z,56.20
2018-05-14T20:52:26.880Z,55.20
2018-05-14T20:54:55.465Z,55.10
2018-05-14T20:57:24.351Z,54.70
2018-05-14T20:59:52.208Z,54.70
2018-05-14T21:02:20.090Z,54.60
2018-05-14T21:04:47.822Z,54.40
2018-05-14T21:07:17.157Z,53.70
2018-05-14T21:09:47.361Z,53.50
2018-05-14T21:12:16.193Z,53.50
2018-05-14T21:14:45.122Z,54.40
2018-05-14T21:17:13.049Z,53.20
2018-05-14T21:19:41.683Z,53.50
2018-05-14T21:22:09.787Z,53.20
2018-05-14T21:24:37.591Z,53.50
2018-05-14T21:27:05.479Z,53.30
2018-05-14T21:29:33.213Z,53.40
2018-05-14T21:32:01.617Z,53.70
2018-05-14T21:34:30.287Z,54.20
2018-05-14T21:36:58.775Z,54.60
2018-05-14T21:39:27.304Z,55.00
2018-05-14T21:41:55.036Z,55.00
2018-05-14T21:44:24.044Z,55.60
2018-05-14T21:46:53.518Z,56.50
2018-05-14T21:49:23.270Z,56.50
2018-05-14T21:51:51.358Z,56.40
2018-05-14T21:54:19.077Z,56.60
2018-05-14T21:56:46.814Z,56.40
2018-05-14T21:59:15.330Z,58.00
2018-05-14T22:01:43.073Z,58.00
2018-05-14T22:04:11.739Z,56.20
2018-05-14T22:06:40.242Z,56.80
2018-05-14T22:09:07.964Z,56.10
2018-05-14T22:11:35.713Z,55.90
2018-05-14T22:14:03.517Z,55.50
2018-05-14T22:16:32.044Z,55.90
2018-05-14T22:19:00.266Z,55.80
2018-05-14T22:21:28.790Z,56.30
2018-05-14T22:23:56.516Z,56.40
2018-05-14T22:26:25.081Z,58.20
2018-05-14T22:28:53.625Z,59.10
2018-05-14T22:31:21.375Z,59.10
2018-05-14T22:33:49.096Z,59.90
2018-05-14T22:36:17.740Z,60.60
2018-05-14T22:38:45.466Z,60.60
2018-05-14T22:41:13.194Z,61.90
2018-05-14T22:43:40.956Z,61.10
2018-05-14T22:46:08.706Z,61.50
2018-05-14T22:48:36.575Z,60.90
2018-05-14T22:51:04.334Z,61.50
2018-05-14T22:53:32.137Z,60.30
2018-05-14T22:56:00.615Z,59.20
2018-05-14T22:58:29.099Z,59.70
2018-05-14T23:00:57.805Z,59.70
2018-05-14T23:03:26.341Z,59.80
2018-05-14T23:05:54.121Z,59.30
2018-05-14T23:08:22.648Z,59.40
2018-05-14T23:10:50.498Z,59.40
2018-05-14T23:13:18.284Z,58.80
2018-05-14T23:15:46.036Z,59.30
2018-05-14T23:18:13.801Z,58.60
2018-05-14T23:20:41.525Z,58.60
2018-05-14T23:23:10.081Z,58.70
2018-05-14T23:25:37.805Z,58.60
2018-05-14T23:28:05.544Z,58.70
2018-05-14T23:30:33.323Z,58.60
2018-05-14T23:33:01.074Z,58.80
2018-05-14T23:35:28.953Z,58.80
2018-05-14T23:37:56.674Z,59.20
2018-05-14T23:40:24.403Z,58.80
2018-05-14T23:42:52.172Z,58.80
2018-05-14T23:45:19.884Z,58.80
2018-05-14T23:47:48.420Z,59.50
2018-05-14T23:50:16.153Z,59.40
2018-05-14T23:52:43.909Z,59.10
2018-05-14T23:55:11.648Z,59.70
2018-05-14T23:57:40.294Z,60.70
